Time;durP1;ratioP1;P1;durP2;ratioP2;P2;SDS_P1;SDS_P2;PMS_P1;PMS_P2;Temp;Humidity;BMP_temperature;BMP_pressure;BME280_temperature;BME280_humidity;BME280_pressure;Samples;Min_cycle;Max_cycle;Signal;HPM_P1;HPM_P2
2023/03/18 00:02:06;;;;;;;3.20;1.85;;;10.40;99.90;;;;;;5050879;28;20123;-38
2023/03/18 00:04:33;;;;;;;2.83;1.98;;;10.40;99.90;;;;;;5050864;28;20025;-37
2023/03/18 00:06:59;;;;;;;2.90;1.60;;;10.40;99.90;;;;;;5050624;28;20032;-36
2023/03/18 00:09:25;;;;;;;2.60;1.75;;;10.40;99.90;;;;;;5052179;28;20419;-36
2023/03/18 00:11:51;;;;;;;3.30;1.70;;;10.40;99.90;;;;;;5052312;28;20033;-37
2023/03/18 00:14:18;;;;;;;2.33;1.60;;;10.40;99.90;;;;;;5051067;28;20032;-34
2023/03/18 00:16:44;;;;;;;2.50;1.83;;;10.40;99.90;;;;;;5051227;28;20104;-38
2023/03/18 00:19:10;;;;;;;3.17;2.03;;;10.40;99.90;;;;;;5051905;28;20518;-37
2023/03/18 00:21:36;;;;;;;4.45;2.30;;;10.40;99.90;;;;;;5051344;28;20033;-35
2023/03/18 00:24:02;;;;;;;2.88;1.92;;;10.40;99.90;;;;;;5052001;28;20102;-34
2023/03/18 00:26:28;;;;;;;2.50;1.60;;;10.40;99.90;;;;;;5050553;28;20031;-36
2023/03/18 00:28:57;;;;;;;4.85;2.00;;;10.40;99.90;;;;;;5050623;28;20395;-37
2023/03/18 00:31:24;;;;;;;2.53;1.65;;;10.40;99.90;;;;;;5050825;28;20075;-37
2023/03/18 00:33:50;;;;;;;2.72;1.98;;;10.40;99.90;;;;;;5052107;28;20104;-37
2023/03/18 00:36:17;;;;;;;2.80;1.98;;;10.40;99.90;;;;;;5050692;28;20100;-35
2023/03/18 00:38:46;;;;;;;3.22;1.88;;;10.40;99.90;;;;;;5050645;28;20037;-36
2023/03/18 00:41:15;;;;;;;3.95;2.13;;;10.40;99.90;;;;;;5052241;28;20053;-38
2023/03/18 00:43:53;;;;;;;2.55;1.80;;;10.40;99.90;;;;;;5054930;28;20037;-34
2023/03/18 00:46:25;;;;;;;2.80;1.70;;;10.40;99.90;;;;;;5054579;28;20021;-34
2023/03/18 00:48:53;;;;;;;3.10;1.90;;;10.40;99.90;;;;;;5054730;28;20495;-36
2023/03/18 00:51:21;;;;;;;3.80;1.83;;;10.40;99.90;;;;;;5054387;28;20091;-34
2023/03/18 00:53:50;;;;;;;4.63;1.90;;;10.40;99.90;;;;;;5055015;28;20083;-35
2023/03/18 00:56:18;;;;;;;2.85;1.80;;;10.30;99.90;;;;;;5055215;28;20025;-39
2023/03/18 00:58:44;;;;;;;2.70;1.92;;;10.30;99.90;;;;;;5054890;28;20479;-36
2023/03/18 01:01:12;;;;;;;3.25;1.90;;;10.40;99.90;;;;;;5055101;28;20040;-36
2023/03/18 01:03:41;;;;;;;2.83;1.70;;;10.40;99.90;;;;;;5055170;28;20064;-38
2023/03/18 01:06:08;;;;;;;3.00;1.70;;;10.40;99.90;;;;;;5053666;28;20139;-40
2023/03/18 01:08:34;;;;;;;3.25;1.65;;;10.40;99.90;;;;;;5054395;28;20021;-36
2023/03/18 01:11:00;;;;;;;2.58;1.73;;;10.40;99.90;;;;;;5054866;28;20029;-34
2023/03/18 01:13:26;;;;;;;3.75;1.90;;;10.40;99.90;;;;;;5054111;28;20061;-34
2023/03/18 01:15:53;;;;;;;3.50;1.60;;;10.40;99.90;;;;;;5053588;28;20056;-38
2023/03/18 01:18:19;;;;;;;2.50;1.80;;;10.40;99.90;;;;;;5053715;28;20017;-40
2023/03/18 01:20:45;;;;;;;2.95;1.55;;;10.40;99.90;;;;;;5054888;28;20112;-34
2023/03/18 01:23:12;;;;;;;2.67;1.75;;;10.40;99.90;;;;;;5054465;28;20154;-38
2023/03/18 01:25:37;;;;;;;2.55;1.63;;;10.40;99.90;;;;;;5053768;28;20401;-36
2023/03/18 01:28:04;;;;;;;2.70;1.90;;;10.30;99.90;;;;;;5055278;28;20085;-36
2023/03/18 01:30:30;;;;;;;2.65;1.90;;;10.30;99.90;;;;;;5054373;28;20136;-37
2023/03/18 01:32:56;;;;;;;3.42;2.05;;;10.30;99.90;;;;;;5054362;28;20031;-36
2023/03/18 01:35:22;;;;;;;2.88;1.70;;;10.30;99.90;;;;;;5053994;28;20033;-35
2023/03/18 01:37:48;;;;;;;3.25;1.80;;;10.40;99.90;;;;;;5053864;28;20021;-35
2023/03/18 01:40:15;;;;;;;3.85;1.75;;;10.40;99.90;;;;;;5054749;28;20047;-36
2023/03/18 01:42:44;;;;;;;4.07;1.88;;;10.30;99.90;;;;;;5053800;28;20094;-37
2023/03/18 01:45:20;;;;;;;3.42;1.95;;;10.40;99.90;;;;;;5053781;28;20067;-35
2023/03/18 01:47:46;;;;;;;2.65;1.73;;;10.30;99.90;;;;;;5054408;28;20031;-39
2023/03/18 01:50:15;;;;;;;2.42;1.50;;;10.40;99.90;;;;;;5054268;28;20025;-36
2023/03/18 01:52:44;;;;;;;3.20;1.80;;;10.40;99.90;;;;;;5053590;28;20021;-36
2023/03/18 01:55:22;;;;;;;2.20;1.48;;;10.40;99.90;;;;;;5054210;28;20108;-34
2023/03/18 01:57:50;;;;;;;2.15;1.48;;;10.30;99.90;;;;;;5054093;28;20433;-34
2023/03/18 02:00:18;;;;;;;2.67;1.60;;;10.30;99.90;;;;;;5053292;28;20035;-36
2023/03/18 02:02:46;;;;;;;2.38;1.60;;;10.30;99.90;;;;;;5053278;28;20028;-36
2023/03/18 02:05:19;;;;;;;2.88;1.63;;;10.30;99.90;;;;;;5053912;28;20127;-34
2023/03/18 02:07:45;;;;;;;2.55;1.60;;;10.40;99.90;;;;;;5052959;28;20040;-36
2023/03/18 02:10:15;;;;;;;2.45;1.50;;;10.40;99.90;;;;;;5052665;28;20272;-36
2023/03/18 02:12:44;;;;;;;2.40;1.40;;;10.30;99.90;;;;;;5054196;28;20021;-35
2023/03/18 02:15:15;;;;;;;2.50;1.40;;;10.30;99.90;;;;;;5053915;28;20024;-38
2023/03/18 02:17:50;;;;;;;2.45;1.70;;;10.40;99.90;;;;;;5053775;28;20044;-34
2023/03/18 02:20:16;;;;;;;1.85;1.30;;;10.30;99.90;;;;;;5053335;28;20036;-34
2023/03/18 02:22:57;;;;;;;2.63;1.70;;;10.40;99.90;;;;;;5053299;28;20033;-37
2023/03/18 02:25:54;;;;;;;2.15;1.67;;;10.40;99.90;;;;;;5052346;28;20364;-34
2023/03/18 02:28:26;;;;;;;2.60;1.60;;;10.30;99.90;;;;;;5053959;28;20075;-35
2023/03/18 02:30:59;;;;;;;2.55;1.52;;;10.40;99.90;;;;;;5053656;28;20036;-36
2023/03/18 02:33:30;;;;;;;2.63;1.55;;;10.30;99.90;;;;;;5053034;28;20105;-36
2023/03/18 02:36:08;;;;;;;2.85;1.67;;;10.40;99.90;;;;;;5053189;28;20492;-36
2023/03/18 02:38:34;;;;;;;2.55;1.35;;;10.40;99.90;;;;;;5053415;28;20028;-38
2023/03/18 02:41:00;;;;;;;1.95;1.50;;;10.40;99.90;;;;;;5052471;28;20029;-34
2023/03/18 02:43:26;;;;;;;1.95;1.30;;;10.30;99.90;;;;;;5053472;28;20352;-34
2023/03/18 02:46:05;;;;;;;1.92;1.42;;;10.40;99.90;;;;;;5053254;28;20036;-34
2023/03/18 02:48:37;;;;;;;2.72;1.50;;;10.40;99.90;;;;;;5053513;28;20032;-36
2023/03/18 02:51:07;;;;;;;2.13;1.40;;;10.40;99.90;;;;;;5052543;28;20510;-34
2023/03/18 02:53:34;;;;;;;2.72;1.80;;;10.40;99.90;;;;;;5051932;28;20036;-34
2023/03/18 02:56:00;;;;;;;2.72;1.58;;;10.30;99.90;;;;;;5052596;28;20029;-36
2023/03/18 02:58:26;;;;;;;4.45;1.60;;;10.30;99.90;;;;;;5052229;28;20067;-34
2023/03/18 03:00:53;;;;;;;2.33;1.30;;;10.40;99.90;;;;;;5052522;28;20068;-36
2023/03/18 03:03:19;;;;;;;3.08;1.70;;;10.40;99.90;;;;;;5052625;28;20029;-41
2023/03/18 03:05:46;;;;;;;2.25;1.65;;;10.40;99.90;;;;;;5052585;28;20023;-36
2023/03/18 03:08:13;;;;;;;1.73;1.30;;;10.30;99.90;;;;;;5053855;28;20520;-34
2023/03/18 03:10:38;;;;;;;1.92;1.13;;;10.40;99.90;;;;;;5051430;28;20035;-34
2023/03/18 03:13:05;;;;;;;2.25;1.50;;;10.40;99.90;;;;;;5052477;28;20025;-36
2023/03/18 03:15:31;;;;;;;2.03;1.42;;;10.40;99.90;;;;;;5052728;28;20394;-34
2023/03/18 03:17:57;;;;;;;1.70;1.20;;;10.40;99.90;;;;;;5052233;28;20024;-36
2023/03/18 03:20:24;;;;;;;2.05;1.42;;;10.40;99.90;;;;;;5052233;28;20072;-36
2023/03/18 03:22:49;;;;;;;2.15;1.33;;;10.40;99.90;;;;;;5052574;28;20294;-34
2023/03/18 03:25:15;;;;;;;2.60;1.45;;;10.40;99.90;;;;;;5052614;28;20029;-37
2023/03/18 03:27:41;;;;;;;2.70;1.30;;;10.40;99.90;;;;;;5052822;28;20056;-34
2023/03/18 03:30:10;;;;;;;2.78;1.33;;;10.40;99.90;;;;;;5052335;28;20079;-36
2023/03/18 03:32:35;;;;;;;2.17;1.45;;;10.40;99.90;;;;;;5052337;28;20521;-34
2023/03/18 03:35:01;;;;;;;1.73;1.33;;;10.30;99.90;;;;;;5052700;28;20033;-34
2023/03/18 03:37:27;;;;;;;2.40;1.35;;;10.40;99.90;;;;;;5052123;28;20036;-36
2023/03/18 03:39:53;;;;;;;2.40;1.50;;;10.40;99.90;;;;;;5052040;28;20017;-34
2023/03/18 03:42:18;;;;;;;2.45;1.20;;;10.40;99.90;;;;;;5051896;28;20482;-35
2023/03/18 03:44:44;;;;;;;1.75;1.35;;;10.30;99.90;;;;;;5051292;28;20390;-34
2023/03/18 03:47:10;;;;;;;3.47;1.33;;;10.40;99.90;;;;;;5051824;28;20021;-34
2023/03/18 03:49:36;;;;;;;2.35;1.40;;;10.40;99.90;;;;;;5052133;28;20479;-36
2023/03/18 03:52:03;;;;;;;3.58;1.25;;;10.30;99.90;;;;;;5051126;28;20033;-34
2023/03/18 03:54:29;;;;;;;2.22;1.30;;;10.40;99.90;;;;;;5050843;28;20052;-36
2023/03/18 03:56:54;;;;;;;1.88;1.10;;;10.40;99.90;;;;;;5051634;28;20049;-38
2023/03/18 03:59:20;;;;;;;2.10;1.38;;;10.40;99.90;;;;;;5053090;28;20079;-34
2023/03/18 04:01:46;;;;;;;2.42;1.38;;;10.30;99.90;;;;;;5051644;28;20029;-34
2023/03/18 04:04:12;;;;;;;1.73;1.20;;;10.30;99.90;;;;;;5051014;28;20163;-34
2023/03/18 04:06:37;;;;;;;2.15;1.35;;;10.30;99.90;;;;;;5051022;28;20032;-35
2023/03/18 04:09:03;;;;;;;1.88;1.10;;;10.30;99.90;;;;;;5052412;28;20040;-34
2023/03/18 04:11:29;;;;;;;1.98;1.13;;;10.30;99.90;;;;;;5051214;28;20021;-37
2023/03/18 04:13:55;;;;;;;2.88;1.30;;;10.30;99.90;;;;;;5051820;28;20044;-36
2023/03/18 04:16:21;;;;;;;2.33;1.00;;;10.30;99.90;;;;;;5051758;28;20052;-36
2023/03/18 04:18:46;;;;;;;2.88;1.48;;;10.30;99.90;;;;;;5055522;28;20085;-34
2023/03/18 04:21:13;;;;;;;1.95;0.90;;;10.30;99.90;;;;;;5056599;28;20060;-37
2023/03/18 04:23:39;;;;;;;1.85;1.17;;;10.30;99.90;;;;;;5055708;28;20025;-34
2023/03/18 04:26:05;;;;;;;2.17;1.10;;;10.30;99.90;;;;;;5055816;28;20390;-35
2023/03/18 04:28:31;;;;;;;1.67;1.00;;;10.30;99.90;;;;;;5056192;28;20029;-37
2023/03/18 04:30:57;;;;;;;1.63;1.00;;;10.30;99.90;;;;;;5055795;28;20024;-36
2023/03/18 04:33:23;;;;;;;2.38;1.40;;;10.40;99.90;;;;;;5055712;28;20430;-34
2023/03/18 04:35:51;;;;;;;3.28;1.20;;;10.30;99.90;;;;;;5054932;28;20029;-36
2023/03/18 04:38:17;;;;;;;1.77;1.08;;;10.30;99.90;;;;;;5054288;28;20029;-37
2023/03/18 04:40:42;;;;;;;2.53;1.30;;;10.30;99.90;;;;;;5054847;28;20332;-36
2023/03/18 04:43:08;;;;;;;3.03;1.30;;;10.30;99.90;;;;;;5055928;28;20364;-36
2023/03/18 04:45:34;;;;;;;2.92;1.42;;;10.30;99.90;;;;;;5054776;28;20025;-36
2023/03/18 04:48:00;;;;;;;2.63;1.27;;;10.30;99.90;;;;;;5055118;28;20387;-34
2023/03/18 04:50:28;;;;;;;1.65;1.10;;;10.30;99.90;;;;;;5054776;28;20033;-34
2023/03/18 04:52:53;;;;;;;1.90;1.20;;;10.30;99.90;;;;;;5054448;28;20047;-35
2023/03/18 04:55:20;;;;;;;2.42;1.15;;;10.30;99.90;;;;;;5054763;28;20470;-37
2023/03/18 04:57:47;;;;;;;3.00;1.60;;;10.30;99.90;;;;;;5055293;28;20024;-34
2023/03/18 05:00:16;;;;;;;2.92;1.38;;;10.30;99.90;;;;;;5054784;28;20021;-38
2023/03/18 05:02:42;;;;;;;2.00;1.30;;;10.30;99.90;;;;;;5054088;28;20040;-36
2023/03/18 05:05:10;;;;;;;2.25;1.00;;;10.30;99.90;;;;;;5054320;28;20029;-36
2023/03/18 05:07:36;;;;;;;1.73;1.10;;;10.30;99.90;;;;;;5054201;28;20112;-36
2023/03/18 05:10:06;;;;;;;2.53;1.33;;;10.30;99.90;;;;;;5054023;28;20028;-35
2023/03/18 05:12:32;;;;;;;3.40;1.33;;;10.30;99.90;;;;;;5054141;28;20036;-38
2023/03/18 05:14:58;;;;;;;2.25;1.50;;;10.30;99.90;;;;;;5054324;28;20021;-35
2023/03/18 05:17:24;;;;;;;2.03;1.33;;;10.30;99.90;;;;;;5053509;28;20493;-38
2023/03/18 05:19:50;;;;;;;2.20;1.40;;;10.30;99.90;;;;;;5054114;28;20032;-34
2023/03/18 05:22:17;;;;;;;1.95;1.20;;;10.30;99.90;;;;;;5054569;28;20041;-38
2023/03/18 05:24:44;;;;;;;1.88;1.30;;;10.30;99.90;;;;;;5054576;28;20125;-37
2023/03/18 05:27:11;;;;;;;2.90;1.55;;;10.30;99.90;;;;;;5053086;28;20039;-36
2023/03/18 05:29:39;;;;;;;3.08;1.40;;;10.30;99.90;;;;;;5053983;28;20063;-35
2023/03/18 05:32:08;;;;;;;2.38;1.20;;;10.30;99.90;;;;;;5053825;28;20033;-35
2023/03/18 05:34:36;;;;;;;2.20;1.20;;;10.30;99.90;;;;;;5053958;28;20032;-36
2023/03/18 05:37:04;;;;;;;2.25;1.23;;;10.20;99.90;;;;;;5053914;28;20126;-36
2023/03/18 05:39:33;;;;;;;2.90;1.10;;;10.20;99.90;;;;;;5054155;28;20036;-34
2023/03/18 05:41:59;;;;;;;4.35;1.33;;;10.30;99.90;;;;;;5053230;28;20514;-34
2023/03/18 05:44:25;;;;;;;2.55;1.42;;;10.20;99.90;;;;;;5053187;28;20075;-35
2023/03/18 05:46:51;;;;;;;2.60;1.55;;;10.20;99.90;;;;;;5052934;28;20021;-35
2023/03/18 05:49:22;;;;;;;3.47;1.70;;;10.20;99.90;;;;;;5053007;28;20437;-34
2023/03/18 05:51:48;;;;;;;2.35;1.65;;;10.20;99.90;;;;;;5053917;28;20014;-37
2023/03/18 05:54:15;;;;;;;3.78;1.80;;;10.20;99.90;;;;;;5053396;28;20082;-37
2023/03/18 05:56:42;;;;;;;2.08;1.30;;;10.20;99.90;;;;;;5054118;28;20028;-36
2023/03/18 05:59:08;;;;;;;2.45;1.48;;;10.20;99.90;;;;;;5053262;28;20017;-37
2023/03/18 06:01:36;;;;;;;3.33;1.50;;;10.20;99.90;;;;;;5053235;28;20028;-34
2023/03/18 06:04:03;;;;;;;2.17;1.50;;;10.20;99.90;;;;;;5053032;28;20057;-36
2023/03/18 06:06:31;;;;;;;3.83;1.80;;;10.20;99.90;;;;;;5052908;28;20098;-36
2023/03/18 06:08:57;;;;;;;2.25;1.50;;;10.20;99.90;;;;;;5053175;28;20025;-37
2023/03/18 06:11:23;;;;;;;3.30;1.80;;;10.20;99.90;;;;;;5053003;28;20036;-35
2023/03/18 06:13:49;;;;;;;2.30;1.55;;;10.20;99.90;;;;;;5053028;28;20073;-36
2023/03/18 06:16:15;;;;;;;2.30;1.73;;;10.20;99.90;;;;;;5052551;28;20104;-38
2023/03/18 06:18:41;;;;;;;2.72;1.45;;;10.20;99.90;;;;;;5053347;28;20539;-34
2023/03/18 06:21:10;;;;;;;3.60;1.50;;;10.20;99.90;;;;;;5053374;28;20036;-37
2023/03/18 06:23:36;;;;;;;3.63;1.58;;;10.20;99.90;;;;;;5053097;28;20025;-34
2023/03/18 06:26:02;;;;;;;2.95;1.52;;;10.20;99.90;;;;;;5053482;28;20025;-36
2023/03/18 06:28:29;;;;;;;2.83;1.75;;;10.20;99.90;;;;;;5053688;28;20399;-36
2023/03/18 06:30:58;;;;;;;2.83;1.50;;;10.20;99.90;;;;;;5053016;28;20542;-36
2023/03/18 06:33:24;;;;;;;1.70;1.10;;;10.20;99.90;;;;;;5052453;28;20028;-38
2023/03/18 06:35:52;;;;;;;3.25;1.75;;;10.20;99.90;;;;;;5053206;28;20017;-34
2023/03/18 06:38:17;;;;;;;2.60;1.60;;;10.20;99.90;;;;;;5052313;28;20017;-38
2023/03/18 06:40:43;;;;;;;3.42;1.83;;;10.20;99.90;;;;;;5052299;28;20028;-38
2023/03/18 06:43:10;;;;;;;2.25;1.55;;;10.20;99.90;;;;;;5052254;28;20025;-36
2023/03/18 06:45:36;;;;;;;2.30;1.42;;;10.20;99.90;;;;;;5052752;28;20451;-37
2023/03/18 06:48:02;;;;;;;4.22;1.60;;;10.20;99.90;;;;;;5053486;28;20041;-34
2023/03/18 06:50:29;;;;;;;3.00;2.00;;;10.20;99.90;;;;;;5053030;28;20025;-35
2023/03/18 06:52:55;;;;;;;2.70;1.55;;;10.20;99.90;;;;;;5052931;28;20031;-38
2023/03/18 06:55:20;;;;;;;2.42;1.70;;;10.20;99.90;;;;;;5053058;28;20108;-36
2023/03/18 06:57:47;;;;;;;4.07;1.55;;;10.20;99.90;;;;;;5052848;28;20427;-34
2023/03/18 07:00:14;;;;;;;1.92;1.30;;;10.20;99.90;;;;;;5052834;28;20044;-37
2023/03/18 07:02:40;;;;;;;3.22;1.40;;;10.20;99.90;;;;;;5051930;28;20119;-34
2023/03/18 07:05:07;;;;;;;2.75;1.70;;;10.20;99.90;;;;;;5052839;28;20045;-35
2023/03/18 07:07:33;;;;;;;2.45;1.48;;;10.10;99.90;;;;;;5052083;28;20037;-37
2023/03/18 07:09:59;;;;;;;1.70;1.38;;;10.20;99.90;;;;;;5052457;28;20135;-38
2023/03/18 07:12:25;;;;;;;2.08;1.15;;;10.20;99.90;;;;;;5052347;28;20044;-35
2023/03/18 07:14:52;;;;;;;2.80;1.40;;;10.20;99.90;;;;;;5051788;28;20384;-38
2023/03/18 07:17:19;;;;;;;2.20;1.40;;;10.10;99.90;;;;;;5052645;28;20112;-35
2023/03/18 07:19:45;;;;;;;1.77;1.30;;;10.20;99.90;;;;;;5051940;28;20025;-36
2023/03/18 07:22:11;;;;;;;4.82;1.48;;;10.20;99.90;;;;;;5051437;28;20025;-38
2023/03/18 07:24:36;;;;;;;2.22;1.17;;;10.20;99.90;;;;;;5053005;28;20040;-35
2023/03/18 07:27:03;;;;;;;2.47;1.38;;;10.20;99.90;;;;;;5052220;28;20029;-38
2023/03/18 07:29:28;;;;;;;1.98;1.30;;;10.20;99.90;;;;;;5052136;28;20057;-36
2023/03/18 07:31:54;;;;;;;2.47;1.40;;;10.20;99.90;;;;;;5052619;28;20025;-36
2023/03/18 07:34:20;;;;;;;2.30;1.15;;;10.20;99.90;;;;;;5051715;28;20478;-35
2023/03/18 07:36:46;;;;;;;2.40;1.50;;;10.20;99.90;;;;;;5050897;28;20032;-35
2023/03/18 07:39:13;;;;;;;2.03;1.42;;;10.30;99.90;;;;;;5051233;28;20028;-37
2023/03/18 07:41:39;;;;;;;2.00;1.30;;;10.30;99.90;;;;;;5051221;28;20021;-36
2023/03/18 07:44:06;;;;;;;1.73;1.05;;;10.30;99.90;;;;;;5051119;28;20063;-39
2023/03/18 07:46:32;;;;;;;2.40;1.38;;;10.30;99.90;;;;;;5052526;28;20548;-36
2023/03/18 07:48:57;;;;;;;4.50;1.30;;;10.30;99.90;;;;;;5052299;28;20033;-38
2023/03/18 07:51:23;;;;;;;1.92;1.30;;;10.40;99.90;;;;;;5053140;28;20025;-39
2023/03/18 07:53:50;;;;;;;2.58;1.58;;;10.30;99.90;;;;;;5056337;28;20379;-35
2023/03/18 07:56:16;;;;;;;3.25;1.60;;;10.40;99.90;;;;;;5056349;28;20028;-39
2023/03/18 07:58:42;;;;;;;2.13;1.35;;;10.40;99.90;;;;;;5056522;28;20564;-34
2023/03/18 08:01:08;;;;;;;2.17;1.33;;;10.40;99.90;;;;;;5056628;28;20056;-38
2023/03/18 08:03:34;;;;;;;1.90;1.20;;;10.40;99.90;;;;;;5056805;28;20035;-36
2023/03/18 08:06:00;;;;;;;1.88;1.23;;;10.40;99.90;;;;;;5056399;28;20049;-35
2023/03/18 08:08:26;;;;;;;2.45;1.20;;;10.40;99.90;;;;;;5055071;28;20522;-35
2023/03/18 08:11:01;;;;;;;1.90;1.27;;;10.40;99.90;;;;;;5055976;28;20052;-38
2023/03/18 08:13:27;;;;;;;1.80;1.20;;;10.40;99.90;;;;;;5055951;28;20403;-35
2023/03/18 08:15:55;;;;;;;1.60;1.00;;;10.40;99.90;;;;;;5056188;28;20471;-35
2023/03/18 08:18:21;;;;;;;1.48;1.10;;;10.50;99.90;;;;;;5054703;28;20075;-37
2023/03/18 08:20:47;;;;;;;1.52;0.98;;;10.40;99.90;;;;;;5055479;28;20032;-34
2023/03/18 08:23:13;;;;;;;2.00;1.30;;;10.50;99.90;;;;;;5055893;28;20066;-37
2023/03/18 08:25:40;;;;;;;2.08;1.23;;;10.50;99.90;;;;;;5055876;28;20028;-36
2023/03/18 08:28:06;;;;;;;1.77;1.13;;;10.50;99.90;;;;;;5056212;28;20029;-38
2023/03/18 08:30:33;;;;;;;1.55;1.05;;;10.50;99.90;;;;;;5055953;28;20044;-34
2023/03/18 08:32:59;;;;;;;1.73;1.10;;;10.60;99.90;;;;;;5056137;28;20025;-38
2023/03/18 08:35:25;;;;;;;1.67;1.02;;;10.60;99.90;;;;;;5054944;28;20022;-34
2023/03/18 08:37:51;;;;;;;2.95;1.30;;;10.60;99.90;;;;;;5055369;28;20029;-34
2023/03/18 08:40:18;;;;;;;1.58;0.95;;;10.60;99.90;;;;;;5055767;28;20116;-35
2023/03/18 08:42:44;;;;;;;1.05;0.90;;;10.60;99.90;;;;;;5055199;28;20021;-37
2023/03/18 08:45:11;;;;;;;2.50;1.23;;;10.70;99.90;;;;;;5055923;28;20025;-36
2023/03/18 08:47:36;;;;;;;1.58;1.10;;;10.60;99.90;;;;;;5053990;28;20033;-36
2023/03/18 08:50:04;;;;;;;2.20;1.25;;;10.70;99.90;;;;;;5055869;28;20033;-37
2023/03/18 08:52:31;;;;;;;2.20;1.10;;;10.70;99.90;;;;;;5054742;28;20017;-35
2023/03/18 08:54:57;;;;;;;2.15;1.10;;;10.70;99.90;;;;;;5056197;28;20059;-34
2023/03/18 08:57:23;;;;;;;1.95;1.30;;;10.70;99.90;;;;;;5055521;28;20032;-37
2023/03/18 08:59:49;;;;;;;2.58;1.30;;;10.70;99.90;;;;;;5055079;28;20040;-34
2023/03/18 09:02:15;;;;;;;1.83;1.00;;;10.80;99.90;;;;;;5054515;28;20087;-35
2023/03/18 09:04:41;;;;;;;1.92;1.10;;;10.70;99.90;;;;;;5056468;28;20021;-37
2023/03/18 09:07:08;;;;;;;2.30;1.20;;;10.80;99.90;;;;;;5056229;28;20065;-34
2023/03/18 09:09:33;;;;;;;1.40;1.10;;;10.80;99.90;;;;;;5054600;28;20032;-38
2023/03/18 09:12:00;;;;;;;2.20;0.93;;;10.80;99.90;;;;;;5053896;28;20029;-35
2023/03/18 09:14:26;;;;;;;1.13;0.80;;;10.80;99.90;;;;;;5053836;28;20028;-35
2023/03/18 09:16:53;;;;;;;2.03;0.90;;;10.80;99.90;;;;;;5055907;28;20386;-36
2023/03/18 09:19:18;;;;;;;1.73;1.20;;;10.90;99.90;;;;;;5054957;28;20020;-36
2023/03/18 09:21:45;;;;;;;2.67;1.17;;;10.90;99.90;;;;;;5054409;28;20029;-36
2023/03/18 09:24:10;;;;;;;2.08;1.00;;;10.90;99.90;;;;;;5053598;28;20057;-37
2023/03/18 09:26:38;;;;;;;1.35;1.00;;;10.80;99.90;;;;;;5054380;28;20110;-34
2023/03/18 09:29:04;;;;;;;1.73;1.15;;;10.90;99.90;;;;;;5055854;28;20017;-35
2023/03/18 09:31:29;;;;;;;1.60;1.00;;;10.90;99.90;;;;;;5055510;28;20037;-34
2023/03/18 09:33:55;;;;;;;1.60;0.90;;;10.90;99.90;;;;;;5055056;28;20109;-36
2023/03/18 09:36:22;;;;;;;2.10;1.15;;;11.00;99.90;;;;;;5054165;28;20375;-36
2023/03/18 09:38:47;;;;;;;2.10;0.88;;;11.00;99.90;;;;;;5054211;28;20029;-36
2023/03/18 09:41:20;;;;;;;1.75;1.00;;;11.00;99.90;;;;;;5054673;28;20048;-36
2023/03/18 09:44:09;;;;;;;1.63;1.00;;;11.00;99.90;;;;;;5053506;28;20111;-34
2023/03/18 09:46:47;;;;;;;1.50;0.90;;;11.00;99.90;;;;;;5054862;28;20096;-34
2023/03/18 09:49:44;;;;;;;1.95;1.05;;;11.00;99.90;;;;;;5054554;28;20021;-34
2023/03/18 09:52:21;;;;;;;1.75;0.93;;;11.00;99.90;;;;;;5054201;28;20021;-35
2023/03/18 09:54:57;;;;;;;2.55;1.23;;;11.00;99.90;;;;;;5053844;28;20029;-36
2023/03/18 09:57:32;;;;;;;2.75;0.98;;;11.00;99.90;;;;;;5054656;28;20025;-38
2023/03/18 10:00:16;;;;;;;1.08;0.80;;;11.00;99.90;;;;;;5052895;28;20103;-34
2023/03/18 10:03:00;;;;;;;1.45;1.02;;;11.00;99.90;;;;;;5053164;28;20031;-35
2023/03/18 10:05:34;;;;;;;2.23;1.00;;;11.00;99.90;;;;;;5053644;28;20415;-33
2023/03/18 10:08:12;;;;;;;1.27;0.80;;;11.00;99.90;;;;;;5053028;28;20252;-34
2023/03/18 10:10:45;;;;;;;3.35;0.90;;;11.00;99.90;;;;;;5054277;28;20028;-38
2023/03/18 10:13:35;;;;;;;1.85;1.00;;;11.00;99.90;;;;;;5053979;28;20102;-35
2023/03/18 10:16:04;;;;;;;2.05;0.73;;;11.00;99.90;;;;;;5052870;28;20013;-34
2023/03/18 10:18:36;;;;;;;4.18;1.10;;;11.00;99.90;;;;;;5053130;28;20032;-35
2023/03/18 10:21:10;;;;;;;2.05;1.00;;;11.00;99.90;;;;;;5053954;28;20517;-37
2023/03/18 10:23:58;;;;;;;1.35;0.88;;;11.10;99.90;;;;;;5053324;28;20460;-34
2023/03/18 10:26:45;;;;;;;1.17;0.80;;;11.00;99.90;;;;;;5053385;28;20027;-36
2023/03/18 10:29:30;;;;;;;3.75;1.10;;;11.10;99.90;;;;;;5052958;28;20033;-34
2023/03/18 10:32:37;;;;;;;1.85;0.90;;;11.10;99.90;;;;;;5052999;28;20393;-37
2023/03/18 10:35:47;;;;;;;4.25;1.20;;;11.10;99.90;;;;;;5053006;28;20021;-36
2023/03/18 10:38:30;;;;;;;1.77;0.85;;;11.10;99.90;;;;;;5052515;28;20021;-37
2023/03/18 10:40:56;;;;;;;2.28;0.88;;;11.10;99.90;;;;;;5053329;28;20103;-38
2023/03/18 10:43:26;;;;;;;1.38;0.80;;;11.10;99.90;;;;;;5052648;28;20032;-36
2023/03/18 10:46:02;;;;;;;2.28;0.80;;;11.20;99.90;;;;;;5052766;28;20025;-37
2023/03/18 10:48:58;;;;;;;2.05;1.08;;;11.10;99.90;;;;;;5052543;28;20041;-36
2023/03/18 10:51:59;;;;;;;1.35;0.95;;;11.10;99.90;;;;;;5051935;28;20033;-34
2023/03/18 10:54:31;;;;;;;2.38;1.05;;;11.20;99.90;;;;;;5051797;28;20043;-35
2023/03/18 10:56:57;;;;;;;2.00;0.85;;;11.20;99.90;;;;;;5052640;28;20025;-37
2023/03/18 10:59:25;;;;;;;1.92;0.88;;;11.20;99.90;;;;;;5052194;28;20560;-36
2023/03/18 11:02:12;;;;;;;1.52;0.80;;;11.20;99.90;;;;;;5052105;28;20376;-34
2023/03/18 11:04:46;;;;;;;3.08;0.82;;;11.20;99.90;;;;;;5052155;28;20025;-34
2023/03/18 11:07:18;;;;;;;1.95;1.00;;;11.20;99.90;;;;;;5052721;28;20021;-34
2023/03/18 11:09:45;;;;;;;1.50;0.98;;;11.30;99.90;;;;;;5052019;28;20029;-35
2023/03/18 11:12:26;;;;;;;1.80;0.80;;;11.30;99.90;;;;;;5052171;28;20017;-37
2023/03/18 11:14:52;;;;;;;2.08;1.00;;;11.30;99.90;;;;;;5051708;28;20037;-36
2023/03/18 11:17:34;;;;;;;1.63;0.95;;;11.30;99.90;;;;;;5051304;28;20020;-35
2023/03/18 11:20:07;;;;;;;1.90;0.93;;;11.30;99.90;;;;;;5051693;28;20021;-36
2023/03/18 11:22:36;;;;;;;2.70;1.13;;;11.30;99.90;;;;;;5051979;28;20482;-34
2023/03/18 11:25:15;;;;;;;3.47;0.80;;;11.40;99.90;;;;;;5051954;28;20082;-35
2023/03/18 11:27:47;;;;;;;1.33;0.93;;;11.40;99.90;;;;;;5051510;28;20067;-34
2023/03/18 11:30:20;;;;;;;1.27;0.80;;;11.40;99.90;;;;;;5052661;28;20040;-34
2023/03/18 11:33:01;;;;;;;1.05;0.68;;;11.40;99.90;;;;;;5051983;28;20048;-35
2023/03/18 11:35:44;;;;;;;3.40;0.85;;;11.40;99.90;;;;;;5052913;28;20029;-35
2023/03/18 11:38:19;;;;;;;1.80;0.88;;;11.40;99.90;;;;;;5051777;28;20021;-36
2023/03/18 11:40:45;;;;;;;1.48;0.90;;;11.40;99.90;;;;;;5051358;28;20029;-36
2023/03/18 11:43:22;;;;;;;2.05;1.00;;;11.40;99.90;;;;;;5052150;28;20032;-36
2023/03/18 11:45:58;;;;;;;1.95;0.90;;;11.40;99.90;;;;;;5051173;28;20055;-35
2023/03/18 11:48:36;;;;;;;2.25;0.80;;;11.50;99.90;;;;;;5051728;28;20029;-38
2023/03/18 11:51:21;;;;;;;5.15;1.00;;;11.40;99.90;;;;;;5050909;28;20087;-34
2023/03/18 11:54:15;;;;;;;1.90;0.80;;;11.50;99.90;;;;;;5051045;28;20108;-35
2023/03/18 11:57:07;;;;;;;2.47;0.80;;;11.50;99.90;;;;;;5050906;28;20568;-35
2023/03/18 12:00:09;;;;;;;1.45;0.82;;;11.50;99.90;;;;;;5046962;28;20052;-34
2023/03/18 12:02:53;;;;;;;1.92;0.85;;;11.50;99.90;;;;;;5050994;28;20075;-35
2023/03/18 12:05:37;;;;;;;2.22;0.93;;;11.50;99.90;;;;;;5051026;28;20029;-35
2023/03/18 12:08:09;;;;;;;1.45;0.70;;;11.50;99.90;;;;;;5050899;28;20104;-34
2023/03/18 12:11:06;;;;;;;2.38;0.73;;;11.50;99.90;;;;;;5050991;28;20049;-34
2023/03/18 12:13:47;;;;;;;2.45;0.90;;;11.50;99.90;;;;;;5050634;28;20033;-35
2023/03/18 12:16:13;;;;;;;1.80;1.00;;;11.50;99.90;;;;;;5051185;28;20075;-35
2023/03/18 12:18:42;;;;;;;1.17;0.70;;;11.50;99.90;;;;;;5050897;28;20032;-34
2023/03/18 12:21:23;;;;;;;1.40;0.85;;;11.50;99.90;;;;;;5050941;28;20091;-35
2023/03/18 12:24:12;;;;;;;2.92;0.90;;;11.50;99.90;;;;;;5050876;28;20119;-35
2023/03/18 12:26:59;;;;;;;2.45;0.98;;;11.50;99.90;;;;;;5050645;28;20025;-34
2023/03/18 12:29:40;;;;;;;1.38;1.00;;;11.50;99.90;;;;;;5050807;28;20379;-35
2023/03/18 12:32:36;;;;;;;1.65;0.98;;;11.50;99.90;;;;;;5051391;28;20068;-35
2023/03/18 12:35:29;;;;;;;2.38;0.77;;;11.50;99.90;;;;;;5050969;28;20090;-34
2023/03/18 12:38:07;;;;;;;1.25;0.63;;;11.50;99.90;;;;;;5052494;28;20037;-35
2023/03/18 12:41:37;;;;;;;1.58;0.70;;;11.50;99.90;;;;;;5054499;28;20402;-35
2023/03/18 12:44:33;;;;;;;2.28;0.80;;;11.50;99.90;;;;;;5032133;28;20029;-34
2023/03/18 12:47:17;;;;;;;1.40;0.80;;;11.50;99.90;;;;;;5031790;28;20032;-35
2023/03/18 12:49:57;;;;;;;3.42;1.15;;;11.50;99.90;;;;;;5053729;28;20037;-35
2023/03/18 12:52:22;;;;;;;3.45;1.00;;;11.50;99.90;;;;;;5054192;28;20053;-38
2023/03/18 12:55:05;;;;;;;2.03;0.70;;;11.60;99.90;;;;;;5054404;28;20480;-37
2023/03/18 12:57:36;;;;;;;2.03;0.60;;;11.60;99.90;;;;;;5054172;28;20017;-36
2023/03/18 13:00:17;;;;;;;2.17;0.80;;;11.50;99.90;;;;;;5054151;28;20526;-38
2023/03/18 13:02:49;;;;;;;1.38;0.82;;;11.50;99.90;;;;;;5054402;28;20403;-34
2023/03/18 13:05:26;;;;;;;2.22;0.90;;;11.50;99.90;;;;;;5054446;28;20387;-34